Time;durP1;ratioP1;P1;durP2;ratioP2;P2;SDS_P1;SDS_P2;PMS_P1;PMS_P2;Temp;Humidity;BMP_temperature;BMP_pressure;BME280_temperature;BME280_humidity;BME280_pressure;Samples;Min_cycle;Max_cycle;Signal;HPM_P1;HPM_P2
2021/08/26 00:00:54;;;;;;;194.73;180.63;;;;;;;;;;5033049;28;20449;-64
2021/08/26 00:06:08;;;;;;;181.00;167.47;;;;;;;;;;5032072;28;20482;-64
2021/08/26 00:08:35;;;;;;;182.23;168.87;;;;;;;;;;5032109;28;20459;-64
2021/08/26 00:11:02;;;;;;;174.33;161.23;;;;;;;;;;5019305;28;20460;-64
2021/08/26 00:13:29;;;;;;;171.83;158.23;;;;;;;;;;5012790;28;20497;-65
2021/08/26 00:15:58;;;;;;;176.20;162.93;;;;;;;;;;5013163;28;20450;-64
2021/08/26 00:18:26;;;;;;;168.43;155.90;;;;;;;;;;5012792;28;20453;-64
2021/08/26 00:20:53;;;;;;;173.57;160.00;;;;;;;;;;5013218;28;20825;-65
2021/08/26 00:23:22;;;;;;;170.50;157.33;;;;;;;;;;5012758;28;21048;-64
2021/08/26 00:25:49;;;;;;;170.87;157.83;;;;;;;;;;5024988;28;20457;-65
2021/08/26 00:28:17;;;;;;;166.10;153.10;;;;;;;;;;5014180;28;20945;-64
2021/08/26 00:30:44;;;;;;;161.27;147.77;;;;;;;;;;5026657;28;20463;-65
2021/08/26 00:33:11;;;;;;;160.00;148.07;;;;;;;;;;5032596;28;20488;-64
2021/08/26 00:35:38;;;;;;;161.70;148.63;;;;;;;;;;5015381;28;21036;-64
2021/08/26 00:38:05;;;;;;;156.37;144.73;;;;;;;;;;5012968;28;20460;-64
2021/08/26 00:40:34;;;;;;;158.90;146.67;;;;;;;;;;5012653;28;20454;-65
2021/08/26 00:43:01;;;;;;;153.77;142.20;;;;;;;;;;5012389;28;20484;-64
2021/08/26 00:45:29;;;;;;;154.90;143.00;;;;;;;;;;5015975;28;20818;-65
2021/08/26 00:47:56;;;;;;;154.10;142.50;;;;;;;;;;5031116;28;20463;-66
2021/08/26 00:50:24;;;;;;;158.67;146.50;;;;;;;;;;5012302;28;20471;-65
2021/08/26 00:52:52;;;;;;;142.10;131.17;;;;;;;;;;5020843;28;20539;-64
2021/08/26 00:55:19;;;;;;;140.30;129.03;;;;;;;;;;5020254;28;20481;-65
2021/08/26 00:57:47;;;;;;;139.43;128.70;;;;;;;;;;5012768;28;20449;-66
2021/08/26 01:00:15;;;;;;;141.20;129.43;;;;;;;;;;5012394;28;20832;-65
2021/08/26 01:02:45;;;;;;;145.53;133.43;;;;;;;;;;5012049;28;20845;-66
2021/08/26 01:05:17;;;;;;;140.27;129.70;;;;;;;;;;5013354;28;20460;-65
2021/08/26 01:07:47;;;;;;;145.13;133.70;;;;;;;;;;5015768;28;20457;-64
2021/08/26 01:10:16;;;;;;;138.20;127.47;;;;;;;;;;5032042;28;20435;-67
2021/08/26 01:12:45;;;;;;;141.23;130.00;;;;;;;;;;5031058;28;20456;-64
2021/08/26 01:15:14;;;;;;;140.30;130.00;;;;;;;;;;5017354;28;20900;-66
2021/08/26 01:17:44;;;;;;;138.27;127.27;;;;;;;;;;5013818;28;20536;-64
2021/08/26 01:20:12;;;;;;;144.27;132.53;;;;;;;;;;5031356;28;20437;-64
2021/08/26 01:22:39;;;;;;;128.90;118.83;;;;;;;;;;5030251;28;20451;-65
2021/08/26 01:25:08;;;;;;;134.27;124.10;;;;;;;;;;5031754;28;20444;-64
2021/08/26 01:27:37;;;;;;;132.57;121.67;;;;;;;;;;5020308;28;20450;-65
2021/08/26 01:30:05;;;;;;;125.40;115.40;;;;;;;;;;5026379;28;20452;-64
2021/08/26 01:32:32;;;;;;;126.47;116.60;;;;;;;;;;5030717;28;20456;-64
2021/08/26 01:34:59;;;;;;;125.77;116.00;;;;;;;;;;5031562;28;20861;-65
2021/08/26 01:37:27;;;;;;;125.37;114.93;;;;;;;;;;5030463;28;20966;-64
2021/08/26 01:39:55;;;;;;;122.97;113.30;;;;;;;;;;5031467;28;20536;-64
2021/08/26 01:42:23;;;;;;;120.40;110.97;;;;;;;;;;5023045;28;20456;-64
2021/08/26 01:44:52;;;;;;;123.90;114.10;;;;;;;;;;5017982;28;20460;-64
2021/08/26 01:47:20;;;;;;;120.00;110.50;;;;;;;;;;5030927;28;20444;-65
2021/08/26 01:49:47;;;;;;;117.57;108.03;;;;;;;;;;5030772;28;20463;-64
2021/08/26 01:52:16;;;;;;;116.47;107.10;;;;;;;;;;5030514;28;20466;-64
2021/08/26 01:54:44;;;;;;;113.93;104.77;;;;;;;;;;5030397;28;20492;-64
2021/08/26 01:57:12;;;;;;;114.60;105.50;;;;;;;;;;5023244;28;20457;-65
2021/08/26 01:59:39;;;;;;;119.23;110.00;;;;;;;;;;5012479;28;20829;-64
2021/08/26 02:02:07;;;;;;;111.83;102.73;;;;;;;;;;5011256;28;20449;-65
2021/08/26 02:04:34;;;;;;;115.07;106.30;;;;;;;;;;5011314;28;20476;-64
2021/08/26 02:07:01;;;;;;;116.07;107.70;;;;;;;;;;5011687;28;20810;-65
2021/08/26 02:09:28;;;;;;;118.83;109.70;;;;;;;;;;5029758;28;20463;-64
2021/08/26 02:11:56;;;;;;;116.67;107.73;;;;;;;;;;5031326;28;20449;-64
2021/08/26 02:14:23;;;;;;;112.40;103.50;;;;;;;;;;5013959;28;20868;-64
2021/08/26 02:16:50;;;;;;;113.23;103.53;;;;;;;;;;5015541;28;20475;-66
2021/08/26 02:19:18;;;;;;;112.63;103.73;;;;;;;;;;5028470;28;20463;-64
2021/08/26 02:21:46;;;;;;;116.27;107.37;;;;;;;;;;5011470;28;20445;-64
2021/08/26 02:24:13;;;;;;;110.83;101.33;;;;;;;;;;5011436;28;20484;-65
2021/08/26 02:26:40;;;;;;;113.03;104.00;;;;;;;;;;5019278;28;20979;-64
2021/08/26 02:29:07;;;;;;;114.80;105.67;;;;;;;;;;5020072;28;20450;-65
2021/08/26 02:31:34;;;;;;;111.07;102.07;;;;;;;;;;5028298;28;20908;-65
2021/08/26 02:34:01;;;;;;;115.10;106.43;;;;;;;;;;5015006;28;20985;-65
2021/08/26 02:36:30;;;;;;;117.73;108.10;;;;;;;;;;5030000;28;20824;-66
2021/08/26 02:38:57;;;;;;;110.37;101.57;;;;;;;;;;5034993;28;20457;-64
2021/08/26 02:41:24;;;;;;;111.13;102.20;;;;;;;;;;5033842;28;20449;-65
2021/08/26 02:43:51;;;;;;;116.07;107.40;;;;;;;;;;5032676;28;20491;-65
2021/08/26 02:46:19;;;;;;;106.40;98.00;;;;;;;;;;5014392;28;20456;-65
2021/08/26 02:48:46;;;;;;;114.70;105.73;;;;;;;;;;5015026;28;20975;-65
2021/08/26 02:51:13;;;;;;;120.30;111.27;;;;;;;;;;5014939;28;20456;-67
2021/08/26 02:53:41;;;;;;;112.13;102.93;;;;;;;;;;5031686;28;20472;-65
2021/08/26 02:56:08;;;;;;;108.87;100.47;;;;;;;;;;5029038;28;20952;-65
2021/08/26 02:58:36;;;;;;;110.47;101.53;;;;;;;;;;5016358;28;20449;-66
2021/08/26 03:01:03;;;;;;;107.33;98.70;;;;;;;;;;5045983;28;20818;-66
2021/08/26 03:03:30;;;;;;;110.40;101.60;;;;;;;;;;5017193;28;20477;-66
2021/08/26 03:05:57;;;;;;;106.53;97.43;;;;;;;;;;5021036;28;20463;-66
2021/08/26 03:08:24;;;;;;;107.30;98.00;;;;;;;;;;5033845;28;20956;-66
2021/08/26 03:10:52;;;;;;;108.97;100.27;;;;;;;;;;5017451;28;20965;-65
2021/08/26 03:13:20;;;;;;;107.20;98.87;;;;;;;;;;5013812;28;20485;-66
2021/08/26 03:15:47;;;;;;;104.83;97.13;;;;;;;;;;5014763;28;20486;-66
2021/08/26 03:18:14;;;;;;;105.63;96.73;;;;;;;;;;5017501;28;20962;-65
2021/08/26 03:20:41;;;;;;;112.03;103.77;;;;;;;;;;5014051;28;20473;-65
2021/08/26 03:23:08;;;;;;;106.83;97.97;;;;;;;;;;5025492;28;20481;-65
2021/08/26 03:25:36;;;;;;;108.30;99.83;;;;;;;;;;5034240;28;20447;-66
2021/08/26 03:28:05;;;;;;;115.33;106.53;;;;;;;;;;5031949;28;20461;-65
2021/08/26 03:30:32;;;;;;;113.23;104.40;;;;;;;;;;5033472;28;20459;-65
2021/08/26 03:32:59;;;;;;;112.10;103.73;;;;;;;;;;5031644;28;20472;-66
2021/08/26 03:35:26;;;;;;;114.83;105.40;;;;;;;;;;5014012;28;20492;-66
2021/08/26 03:37:53;;;;;;;119.90;110.40;;;;;;;;;;5014405;28;20453;-66
2021/08/26 03:40:20;;;;;;;111.97;103.60;;;;;;;;;;5013486;28;20464;-66
2021/08/26 03:42:47;;;;;;;107.10;98.33;;;;;;;;;;5015652;28;20474;-66
2021/08/26 03:45:16;;;;;;;110.33;101.83;;;;;;;;;;5014897;28;20445;-65
2021/08/26 03:47:43;;;;;;;119.80;110.73;;;;;;;;;;5014568;28;20445;-66
2021/08/26 03:50:10;;;;;;;108.23;100.17;;;;;;;;;;5014821;28;20958;-66
2021/08/26 03:52:37;;;;;;;110.30;101.57;;;;;;;;;;5014613;28;20952;-67
2021/08/26 03:55:05;;;;;;;111.53;103.07;;;;;;;;;;5015749;28;20485;-65
2021/08/26 03:57:32;;;;;;;107.40;98.33;;;;;;;;;;5016644;28;20450;-66
2021/08/26 03:59:59;;;;;;;104.73;96.37;;;;;;;;;;5024409;28;20449;-65
2021/08/26 04:02:28;;;;;;;107.93;99.30;;;;;;;;;;5013006;28;20552;-66
2021/08/26 04:04:55;;;;;;;111.50;102.40;;;;;;;;;;5015323;28;20449;-65
2021/08/26 04:07:22;;;;;;;100.37;91.67;;;;;;;;;;5032199;28;20459;-66
2021/08/26 04:09:49;;;;;;;111.33;102.63;;;;;;;;;;5033029;28;20460;-65
2021/08/26 04:12:16;;;;;;;103.87;95.37;;;;;;;;;;5030813;28;20449;-66
2021/08/26 04:14:43;;;;;;;94.53;85.73;;;;;;;;;;5012758;28;20498;-66
2021/08/26 04:17:10;;;;;;;97.47;89.17;;;;;;;;;;5013473;28;20453;-67
2021/08/26 04:19:39;;;;;;;100.37;91.87;;;;;;;;;;5013112;28;20454;-67
2021/08/26 04:22:06;;;;;;;103.60;95.23;;;;;;;;;;5013066;28;20481;-66
2021/08/26 04:24:33;;;;;;;92.87;84.63;;;;;;;;;;5012888;28;20465;-67
2021/08/26 04:27:00;;;;;;;97.07;88.60;;;;;;;;;;5012971;28;20464;-65
2021/08/26 04:29:27;;;;;;;95.77;87.07;;;;;;;;;;5012626;28;20467;-65
2021/08/26 04:31:54;;;;;;;102.00;93.97;;;;;;;;;;5012386;28;20464;-66
2021/08/26 04:34:21;;;;;;;100.07;91.83;;;;;;;;;;5012632;28;20469;-65
2021/08/26 04:36:50;;;;;;;105.80;97.20;;;;;;;;;;5012411;28;20553;-66
2021/08/26 04:39:17;;;;;;;105.83;97.13;;;;;;;;;;5013082;28;20446;-66
2021/08/26 04:41:44;;;;;;;101.40;92.83;;;;;;;;;;5012531;28;20452;-66
2021/08/26 04:44:11;;;;;;;97.97;89.60;;;;;;;;;;5012406;28;20932;-66
2021/08/26 04:46:39;;;;;;;97.20;88.97;;;;;;;;;;5012337;28;20454;-66
2021/08/26 04:49:06;;;;;;;104.00;95.63;;;;;;;;;;5012383;28;20463;-66
2021/08/26 04:51:33;;;;;;;101.57;93.33;;;;;;;;;;5012322;28;20465;-67
2021/08/26 04:54:01;;;;;;;103.13;94.90;;;;;;;;;;5012909;28;20469;-66
2021/08/26 04:56:29;;;;;;;101.50;92.30;;;;;;;;;;5012375;28;20481;-67
2021/08/26 04:58:56;;;;;;;109.70;100.90;;;;;;;;;;5012598;28;20527;-66
2021/08/26 05:01:23;;;;;;;112.27;103.20;;;;;;;;;;5012256;28;20456;-66
2021/08/26 05:03:50;;;;;;;109.17;99.77;;;;;;;;;;5012474;28;20481;-66
2021/08/26 05:06:17;;;;;;;109.13;99.97;;;;;;;;;;5011298;28;20446;-67
2021/08/26 05:08:44;;;;;;;121.67;113.17;;;;;;;;;;5012249;28;20463;-66
2021/08/26 05:11:19;;;;;;;116.37;106.57;;;;;;;;;;5012366;28;20537;-66
2021/08/26 05:13:46;;;;;;;121.37;112.40;;;;;;;;;;5017364;28;20506;-65
2021/08/26 05:16:14;;;;;;;115.83;105.53;;;;;;;;;;5031436;23;20497;-68
2021/08/26 05:18:41;;;;;;;131.37;120.57;;;;;;;;;;5017471;28;20488;-68
2021/08/26 05:21:08;;;;;;;128.67;117.73;;;;;;;;;;5012230;28;20812;-67
2021/08/26 05:23:35;;;;;;;138.83;127.93;;;;;;;;;;5006698;28;20465;-68
2021/08/26 05:26:02;;;;;;;276.53;257.73;;;;;;;;;;4990266;28;20471;-67
2021/08/26 05:28:31;;;;;;;160.97;149.23;;;;;;;;;;4981815;28;20462;-67
2021/08/26 05:30:58;;;;;;;118.73;109.03;;;;;;;;;;4990299;28;20474;-67
2021/08/26 05:33:25;;;;;;;120.83;110.13;;;;;;;;;;4988194;28;20447;-66
2021/08/26 05:35:52;;;;;;;151.47;139.43;;;;;;;;;;4991639;28;20500;-66
2021/08/26 05:38:19;;;;;;;155.23;142.53;;;;;;;;;;4991973;28;20454;-66
2021/08/26 05:40:46;;;;;;;191.07;175.80;;;;;;;;;;4991254;28;20473;-67
2021/08/26 05:43:13;;;;;;;222.07;205.30;;;;;;;;;;4990091;28;20558;-66
2021/08/26 05:45:42;;;;;;;266.57;248.00;;;;;;;;;;4992703;28;20478;-66
2021/08/26 05:48:09;;;;;;;319.33;297.77;;;;;;;;;;4987491;28;20461;-66
2021/08/26 05:50:36;;;;;;;344.60;321.00;;;;;;;;;;4990361;28;20466;-66
2021/08/26 05:53:03;;;;;;;358.33;334.07;;;;;;;;;;4992339;28;20450;-67
2021/08/26 05:55:30;;;;;;;411.93;385.47;;;;;;;;;;4988980;28;20497;-67
2021/08/26 05:57:58;;;;;;;448.60;422.20;;;;;;;;;;4986329;28;20470;-67
2021/08/26 06:00:25;;;;;;;458.20;432.60;;;;;;;;;;4993543;28;20857;-66
2021/08/26 06:02:53;;;;;;;464.00;437.97;;;;;;;;;;4990285;28;20481;-67
2021/08/26 06:05:20;;;;;;;475.80;451.30;;;;;;;;;;4991075;28;20867;-63
2021/08/26 06:07:48;;;;;;;466.57;442.67;;;;;;;;;;4980297;28;20458;-64
2021/08/26 06:10:15;;;;;;;419.23;396.90;;;;;;;;;;4995265;28;20466;-64
2021/08/26 06:12:43;;;;;;;405.33;383.63;;;;;;;;;;4994466;28;20468;-64
2021/08/26 06:15:11;;;;;;;400.17;379.20;;;;;;;;;;4996297;28;20490;-64
2021/08/26 06:17:40;;;;;;;397.93;376.67;;;;;;;;;;4991131;28;21515;-64
2021/08/26 06:20:09;;;;;;;383.00;362.07;;;;;;;;;;4988437;28;20450;-62
2021/08/26 06:22:37;;;;;;;385.60;364.60;;;;;;;;;;4996151;28;20496;-63
2021/08/26 06:25:05;;;;;;;348.93;329.30;;;;;;;;;;4994415;28;20493;-66
2021/08/26 06:27:32;;;;;;;341.37;321.37;;;;;;;;;;4995841;28;20458;-67
2021/08/26 06:29:59;;;;;;;350.87;330.47;;;;;;;;;;4987586;28;20473;-67
2021/08/26 06:32:26;;;;;;;360.13;339.83;;;;;;;;;;4988529;28;20777;-68
2021/08/26 06:34:54;;;;;;;332.53;313.40;;;;;;;;;;4993773;28;20493;-68
2021/08/26 06:37:22;;;;;;;338.27;318.57;;;;;;;;;;4993751;28;20476;-67
2021/08/26 06:39:49;;;;;;;370.80;350.90;;;;;;;;;;4994462;28;20981;-67
2021/08/26 06:42:16;;;;;;;355.20;335.00;;;;;;;;;;4995919;28;20442;-66
2021/08/26 06:44:44;;;;;;;338.40;319.50;;;;;;;;;;4994063;28;20818;-67
2021/08/26 06:47:11;;;;;;;361.87;342.37;;;;;;;;;;4996327;28;20934;-66
2021/08/26 06:49:38;;;;;;;343.10;324.20;;;;;;;;;;4994993;28;20474;-66
2021/08/26 06:52:05;;;;;;;357.90;338.23;;;;;;;;;;4990138;28;20996;-67
2021/08/26 06:54:34;;;;;;;344.97;326.47;;;;;;;;;;4993395;28;20993;-66
2021/08/26 06:57:01;;;;;;;357.03;338.43;;;;;;;;;;4995793;28;20489;-67
2021/08/26 06:59:28;;;;;;;328.03;310.43;;;;;;;;;;4994929;28;20553;-67
2021/08/26 07:01:55;;;;;;;334.03;316.30;;;;;;;;;;4995285;28;20456;-67
2021/08/26 07:04:22;;;;;;;326.93;309.83;;;;;;;;;;4995341;28;20477;-67
2021/08/26 07:06:52;;;;;;;318.20;301.10;;;;;;;;;;4994984;28;20853;-67
2021/08/26 07:09:19;;;;;;;321.10;304.40;;;;;;;;;;4994648;28;20466;-67
2021/08/26 07:11:48;;;;;;;311.40;294.60;;;;;;;;;;4992889;28;20828;-67
2021/08/26 07:14:15;;;;;;;314.53;298.83;;;;;;;;;;4992370;28;20481;-67
2021/08/26 07:16:42;;;;;;;322.77;307.00;;;;;;;;;;4994679;28;20974;-67
2021/08/26 07:19:09;;;;;;;315.40;299.70;;;;;;;;;;4992855;28;20497;-67
2021/08/26 07:21:36;;;;;;;299.03;282.93;;;;;;;;;;4995071;28;20465;-67
2021/08/26 07:24:04;;;;;;;315.20;299.27;;;;;;;;;;4994672;28;20973;-67
2021/08/26 07:26:31;;;;;;;294.50;279.90;;;;;;;;;;4995890;28;20497;-67
2021/08/26 07:28:59;;;;;;;294.90;280.77;;;;;;;;;;4991979;28;20474;-67
2021/08/26 07:31:26;;;;;;;300.93;286.63;;;;;;;;;;4993959;28;20861;-67
2021/08/26 07:33:54;;;;;;;289.20;276.10;;;;;;;;;;4995146;28;20455;-67
2021/08/26 07:36:21;;;;;;;285.53;272.37;;;;;;;;;;4994477;28;20498;-67
2021/08/26 07:38:48;;;;;;;270.17;257.77;;;;;;;;;;4995133;28;20465;-67
2021/08/26 07:41:15;;;;;;;262.87;251.00;;;;;;;;;;4994328;28;20472;-67
2021/08/26 07:43:42;;;;;;;256.43;244.43;;;;;;;;;;4994269;28;20446;-67
2021/08/26 07:46:11;;;;;;;261.03;249.07;;;;;;;;;;4994007;28;20486;-67
2021/08/26 07:48:39;;;;;;;248.77;237.57;;;;;;;;;;4995206;28;20462;-67
2021/08/26 07:51:06;;;;;;;228.80;218.00;;;;;;;;;;4993847;28;20470;-67
2021/08/26 07:53:33;;;;;;;206.50;196.37;;;;;;;;;;4995040;28;20972;-67
2021/08/26 07:56:01;;;;;;;214.70;204.23;;;;;;;;;;4994311;28;20496;-67
2021/08/26 07:58:30;;;;;;;199.30;189.70;;;;;;;;;;4996391;28;20467;-67
2021/08/26 08:00:57;;;;;;;207.50;197.50;;;;;;;;;;4992946;28;20474;-67
2021/08/26 08:03:25;;;;;;;202.40;192.77;;;;;;;;;;4993407;28;20481;-67
2021/08/26 08:05:53;;;;;;;167.60;158.70;;;;;;;;;;4994803;28;20471;-67
2021/08/26 08:08:20;;;;;;;171.53;162.77;;;;;;;;;;4993995;28;20474;-67
2021/08/26 08:10:47;;;;;;;171.93;163.13;;;;;;;;;;4994119;28;20465;-67
2021/08/26 08:13:14;;;;;;;169.00;160.40;;;;;;;;;;4992929;28;20654;-68
2021/08/26 08:15:43;;;;;;;142.40;134.30;;;;;;;;;;4994023;28;20501;-68
2021/08/26 08:18:10;;;;;;;156.43;148.30;;;;;;;;;;4993039;28;20997;-68
2021/08/26 08:20:39;;;;;;;148.80;141.17;;;;;;;;;;4994109;28;20522;-68
2021/08/26 08:23:06;;;;;;;137.43;130.47;;;;;;;;;;4993346;28;20475;-68
2021/08/26 08:25:33;;;;;;;137.30;130.43;;;;;;;;;;4993786;28;20866;-67
2021/08/26 08:28:00;;;;;;;137.80;130.80;;;;;;;;;;4992640;28;20480;-67
2021/08/26 08:30:27;;;;;;;138.47;131.37;;;;;;;;;;4992263;28;20466;-68
2021/08/26 08:32:55;;;;;;;128.90;122.20;;;;;;;;;;4993669;28;20470;-67
2021/08/26 08:35:22;;;;;;;127.63;121.03;;;;;;;;;;4993052;28;20859;-68
2021/08/26 08:37:50;;;;;;;121.87;115.63;;;;;;;;;;4993114;28;20474;-68
2021/08/26 08:40:18;;;;;;;111.87;105.97;;;;;;;;;;4993100;28;20461;-68
2021/08/26 08:42:45;;;;;;;104.67;99.17;;;;;;;;;;4992110;28;20474;-68
2021/08/26 08:45:12;;;;;;;95.30;90.10;;;;;;;;;;4991425;28;21031;-68
2021/08/26 08:47:41;;;;;;;92.17;87.00;;;;;;;;;;4993613;28;20934;-68
2021/08/26 08:50:08;;;;;;;91.13;85.93;;;;;;;;;;4992483;28;20509;-67
2021/08/26 08:52:37;;;;;;;80.37;75.73;;;;;;;;;;4993905;28;20937;-68
2021/08/26 08:55:07;;;;;;;78.50;74.10;;;;;;;;;;4992740;28;20490;-68
2021/08/26 08:57:36;;;;;;;74.03;69.93;;;;;;;;;;4993955;28;20490;-68
2021/08/26 09:00:05;;;;;;;70.37;66.20;;;;;;;;;;4991760;28;20467;-67
2021/08/26 09:02:32;;;;;;;60.70;56.87;;;;;;;;;;4996722;28;20461;-68
2021/08/26 09:05:01;;;;;;;58.20;54.70;;;;;;;;;;5000854;28;20486;-68
2021/08/26 09:07:29;;;;;;;51.23;48.23;;;;;;;;;;4993801;28;20464;-68
2021/08/26 09:09:57;;;;;;;44.33;41.63;;;;;;;;;;4993077;28;20490;-68
2021/08/26 09:12:39;;;;;;;41.43;38.93;;;;;;;;;;4993399;28;20446;-68
2021/08/26 09:15:10;;;;;;;37.43;35.13;;;;;;;;;;4991525;28;20490;-68
2021/08/26 09:17:37;;;;;;;33.20;31.20;;;;;;;;;;4992800;28;20493;-68
2021/08/26 09:20:04;;;;;;;31.90;29.90;;;;;;;;;;4991482;28;20470;-68
2021/08/26 09:22:32;;;;;;;33.20;31.10;;;;;;;;;;4992663;28;20476;-68
2021/08/26 09:25:00;;;;;;;31.10;29.20;;;;;;;;;;4989982;28;20847;-68
2021/08/26 09:27:46;;;;;;;29.23;27.23;;;;;;;;;;4990169;28;20832;-67
2021/08/26 09:30:16;;;;;;;30.20;28.40;;;;;;;;;;4991010;28;20450;-69
2021/08/26 09:32:44;;;;;;;28.23;26.50;;;;;;;;;;4984084;28;20470;-68
2021/08/26 09:35:15;;;;;;;28.13;26.30;;;;;;;;;;4990822;28;21013;-67
2021/08/26 09:37:47;;;;;;;28.73;26.83;;;;;;;;;;4992231;28;20555;-68
2021/08/26 09:40:15;;;;;;;27.50;25.90;;;;;;;;;;4990711;28;20470;-68
2021/08/26 09:42:42;;;;;;;26.47;24.73;;;;;;;;;;4991367;28;20454;-68
2021/08/26 09:45:17;;;;;;;25.00;23.60;;;;;;;;;;4989444;28;20493;-67
2021/08/26 09:48:00;;;;;;;24.53;23.10;;;;;;;;;;4992415;28;20458;-67
2021/08/26 09:50:38;;;;;;;24.73;23.13;;;;;;;;;;4991479;28;20473;-67
2021/08/26 09:53:05;;;;;;;24.80;23.33;;;;;;;;;;4992770;28;20917;-67
2021/08/26 09:55:47;;;;;;;26.13;24.40;;;;;;;;;;4991270;28;20496;-67
2021/08/26 09:58:15;;;;;;;25.97;24.53;;;;;;;;;;4993000;28;20439;-67
2021/08/26 10:00:44;;;;;;;23.00;21.80;;;;;;;;;;4989503;28;20846;-67
2021/08/26 10:03:12;;;;;;;24.97;23.50;;;;;;;;;;4992806;28;20957;-67
2021/08/26 10:05:42;;;;;;;25.67;24.07;;;;;;;;;;4992785;28;20558;-66
2021/08/26 10:08:09;;;;;;;26.10;24.40;;;;;;;;;;4991581;28;20454;-67
2021/08/26 10:10:37;;;;;;;25.37;23.97;;;;;;;;;;4990629;28;20825;-67
2021/08/26 10:13:04;;;;;;;24.40;23.10;;;;;;;;;;4993192;28;20540;-66
2021/08/26 10:15:32;;;;;;;25.20;23.80;;;;;;;;;;4992261;28;20502;-67
2021/08/26 10:18:00;;;;;;;26.23;24.73;;;;;;;;;;4992942;28;20494;-67
2021/08/26 10:20:28;;;;;;;26.30;24.63;;;;;;;;;;4992637;28;20470;-67
2021/08/26 10:22:55;;;;;;;24.30;22.60;;;;;;;;;;4993242;28;20458;-67
2021/08/26 10:25:22;;;;;;;27.10;25.40;;;;;;;;;;4991348;28;20494;-66
2021/08/26 10:27:51;;;;;;;27.13;25.43;;;;;;;;;;4992531;28;21042;-67
2021/08/26 10:30:28;;;;;;;24.40;22.63;;;;;;;;;;4992249;28;20850;-67
2021/08/26 10:33:06;;;;;;;23.40;22.00;;;;;;;;;;4993007;28;20837;-67
2021/08/26 10:35:34;;;;;;;25.13;23.73;;;;;;;;;;4991473;28;20482;-67
2021/08/26 10:38:01;;;;;;;24.43;22.80;;;;;;;;;;4992708;28;20549;-67
2021/08/26 10:40:30;;;;;;;23.77;22.20;;;;;;;;;;4991655;28;20842;-67
2021/08/26 10:42:57;;;;;;;23.70;22.20;;;;;;;;;;4992874;28;20458;-66
2021/08/26 10:45:26;;;;;;;22.80;21.40;;;;;;;;;;4991286;28;20522;-67
2021/08/26 10:48:15;;;;;;;22.67;21.23;;;;;;;;;;4992382;28;20868;-67
2021/08/26 10:50:45;;;;;;;22.07;20.77;;;;;;;;;;4991689;28;20462;-67
2021/08/26 10:53:13;;;;;;;26.63;25.13;;;;;;;;;;4994210;28;20435;-67
2021/08/26 10:55:41;;;;;;;26.90;25.20;;;;;;;;;;4994336;28;20494;-67
2021/08/26 10:58:33;;;;;;;24.97;23.50;;;;;;;;;;4995311;28;20486;-67
2021/08/26 11:01:01;;;;;;;25.80;24.00;;;;;;;;;;4971731;28;20493;-67
2021/08/26 11:03:47;;;;;;;24.77;23.27;;;;;;;;;;4996577;28;20802;-67
2021/08/26 11:06:29;;;;;;;25.20;23.80;;;;;;;;;;4995580;28;20492;-67
2021/08/26 11:08:58;;;;;;;24.33;22.93;;;;;;;;;;4989934;28;20488;-67
2021/08/26 11:11:39;;;;;;;22.73;21.47;;;;;;;;;;4995477;28;20490;-67
2021/08/26 11:14:26;;;;;;;23.90;22.70;;;;;;;;;;4985452;28;20839;-67
2021/08/26 11:16:54;;;;;;;23.27;21.97;;;;;;;;;;5028497;23;20610;-63
2021/08/26 11:19:29;;;;;;;22.17;20.97;;;;;;;;;;5026180;28;20449;-63
2021/08/26 11:22:00;;;;;;;22.83;21.50;;;;;;;;;;5031055;28;20472;-63
2021/08/26 11:25:01;;;;;;;23.27;21.97;;;;;;;;;;5033488;28;20536;-64
2021/08/26 11:27:32;;;;;;;24.53;23.33;;;;;;;;;;4972255;28;21112;-64
2021/08/26 11:30:00;;;;;;;23.37;22.07;;;;;;;;;;4970021;28;20484;-64
2021/08/26 11:32:27;;;;;;;23.00;21.80;;;;;;;;;;5000699;28;20473;-64
2021/08/26 11:34:56;;;;;;;22.93;21.63;;;;;;;;;;5033071;28;20502;-64
2021/08/26 11:37:24;;;;;;;22.60;21.30;;;;;;;;;;5033394;28;20492;-64
2021/08/26 11:39:52;;;;;;;22.50;21.20;;;;;;;;;;5033324;28;20451;-64
2021/08/26 11:42:31;;;;;;;21.33;20.23;;;;;;;;;;5033389;28;20981;-64
2021/08/26 11:45:10;;;;;;;21.87;20.67;;;;;;;;;;5033068;28;20466;-64
2021/08/26 11:47:38;;;;;;;22.60;21.27;;;;;;;;;;5032074;28;20480;-64
2021/08/26 11:50:16;;;;;;;21.80;20.70;;;;;;;;;;5032991;28;20468;-64
2021/08/26 11:52:44;;;;;;;21.97;20.57;;;;;;;;;;5033644;28;20472;-64
2021/08/26 11:55:11;;;;;;;21.73;20.60;;;;;;;;;;5032869;28;20468;-64
2021/08/26 11:57:38;;;;;;;21.20;20.10;;;;;;;;;;5031810;28;20488;-64
2021/08/26 12:00:16;;;;;;;22.10;21.00;;;;;;;;;;5033000;28;20935;-64
2021/08/26 12:02:43;;;;;;;19.30;18.30;;;;;;;;;;5033305;28;20464;-66
2021/08/26 12:05:12;;;;;;;19.60;18.60;;;;;;;;;;5031656;28;20837;-65
2021/08/26 12:07:39;;;;;;;20.13;18.93;;;;;;;;;;5032135;28;21255;-66
2021/08/26 12:10:08;;;;;;;20.00;18.90;;;;;;;;;;5033177;28;20445;-65
2021/08/26 12:12:35;;;;;;;20.23;19.23;;;;;;;;;;5032918;28;20464;-66
2021/08/26 12:15:02;;;;;;;20.43;19.33;;;;;;;;;;5033376;28;20444;-66
2021/08/26 12:17:31;;;;;;;20.50;19.30;;;;;;;;;;5031262;28;20842;-65
2021/08/26 12:19:58;;;;;;;20.00;18.90;;;;;;;;;;5031493;28;20465;-66
2021/08/26 12:22:27;;;;;;;20.73;19.43;;;;;;;;;;5031925;28;20510;-66
2021/08/26 12:24:55;;;;;;;19.80;18.80;;;;;;;;;;5032415;28;20476;-66
2021/08/26 12:27:23;;;;;;;20.70;19.60;;;;;;;;;;5032499;28;20465;-64
2021/08/26 12:29:50;;;;;;;19.83;18.83;;;;;;;;;;5032191;28;20459;-66
2021/08/26 12:32:33;;;;;;;22.70;21.50;;;;;;;;;;5032472;28;20466;-66
2021/08/26 12:35:13;;;;;;;24.17;22.77;;;;;;;;;;5032140;28;20545;-66
2021/08/26 12:37:49;;;;;;;24.40;23.10;;;;;;;;;;5032020;28;20492;-62
2021/08/26 12:40:16;;;;;;;24.17;22.87;;;;;;;;;;5032689;28;20451;-65
2021/08/26 12:42:56;;;;;;;23.50;22.23;;;;;;;;;;5032226;28;20544;-62
2021/08/26 12:45:23;;;;;;;23.87;22.37;;;;;;;;;;5031817;28;20511;-64
2021/08/26 12:47:52;;;;;;;24.27;22.97;;;;;;;;;;5032383;28;20465;-64
2021/08/26 12:50:29;;;;;;;24.23;22.90;;;;;;;;;;5029731;28;20471;-62
2021/08/26 12:52:57;;;;;;;24.83;23.43;;;;;;;;;;5031713;28;20455;-64
2021/08/26 12:55:24;;;;;;;25.00;23.30;;;;;;;;;;5030858;28;20469;-64
2021/08/26 12:57:51;;;;;;;26.47;24.67;;;;;;;;;;5030427;28;20585;-64
2021/08/26 13:00:37;;;;;;;25.83;24.33;;;;;;;;;;5031444;28;20469;-64
2021/08/26 13:03:06;;;;;;;26.97;25.27;;;;;;;;;;5031117;28;20457;-64
2021/08/26 13:05:44;;;;;;;27.30;25.70;;;;;;;;;;5029889;28;20932;-64
2021/08/26 13:08:11;;;;;;;24.33;23.13;;;;;;;;;;5038745;28;20485;-64
2021/08/26 13:10:38;;;;;;;25.50;23.80;;;;;;;;;;5040354;28;20835;-63
2021/08/26 13:13:12;;;;;;;26.03;24.63;;;;;;;;;;5032167;28;20535;-64
2021/08/26 13:15:40;;;;;;;26.93;25.30;;;;;;;;;;5032144;28;20465;-64
2021/08/26 13:18:09;;;;;;;27.10;25.70;;;;;;;;;;5029173;28;20488;-64
2021/08/26 13:20:36;;;;;;;29.40;27.90;;;;;;;;;;5031864;28;20441;-63
2021/08/26 13:23:06;;;;;;;31.17;29.47;;;;;;;;;;5031426;28;20496;-64
2021/08/26 13:25:34;;;;;;;30.60;29.10;;;;;;;;;;5032130;28;20452;-64
2021/08/26 13:28:01;;;;;;;32.07;30.20;;;;;;;;;;5030621;28;20488;-64
2021/08/26 13:30:28;;;;;;;34.23;32.03;;;;;;;;;;5031882;28;20451;-64
2021/08/26 13:32:55;;;;;;;33.90;32.10;;;;;;;;;;5030521;28;20483;-64
2021/08/26 13:35:24;;;;;;;31.30;29.50;;;;;;;;;;5027494;28;20484;-62
2021/08/26 13:37:51;;;;;;;30.77;29.07;;;;;;;;;;5031452;28;21013;-64
2021/08/26 13:40:19;;;;;;;31.80;29.80;;;;;;;;;;5031425;28;20573;-65
2021/08/26 13:42:46;;;;;;;32.83;31.03;;;;;;;;;;5031451;28;20464;-65
2021/08/26 13:45:14;;;;;;;33.53;31.80;;;;;;;;;;5032049;28;20882;-65
2021/08/26 13:47:42;;;;;;;33.20;31.50;;;;;;;;;;5025734;28;20552;-64
2021/08/26 13:50:09;;;;;;;32.63;30.77;;;;;;;;;;5011804;28;20528;-62
2021/08/26 13:52:38;;;;;;;32.70;31.10;;;;;;;;;;5021478;28;20835;-63
2021/08/26 13:55:06;;;;;;;30.77;28.97;;;;;;;;;;5011278;28;20828;-63
2021/08/26 13:57:33;;;;;;;29.90;28.20;;;;;;;;;;5019360;28;20587;-64
2021/08/26 14:00:01;;;;;;;30.30;28.23;;;;;;;;;;5019995;28;20790;-64
2021/08/26 14:02:28;;;;;;;32.63;30.93;;;;;;;;;;5031402;28;20523;-65
2021/08/26 14:04:55;;;;;;;34.17;32.50;;;;;;;;;;5032074;28;20452;-63
2021/08/26 14:07:22;;;;;;;32.90;31.30;;;;;;;;;;5032378;28;20471;-62
2021/08/26 14:09:52;;;;;;;33.43;31.73;;;;;;;;;;5032265;28;20455;-61
2021/08/26 14:12:20;;;;;;;32.87;31.17;;;;;;;;;;5032278;28;20510;-62
2021/08/26 14:14:47;;;;;;;31.40;29.63;;;;;;;;;;5034644;28;20822;-62